Time;durP1;ratioP1;P1;durP2;ratioP2;P2;SDS_P1;SDS_P2;PMS_P1;PMS_P2;Temp;Humidity;BMP_temperature;BMP_pressure;BME280_temperature;BME280_humidity;BME280_pressure;Samples;Min_cycle;Max_cycle;Signal;HPM_P1;HPM_P2
2021/07/18 00:00:23;;;;;;;2.50;1.67;;;19.20;99.90;;;;;;5060326;28;20504;-70
2021/07/18 00:02:50;;;;;;;6.30;2.20;;;19.30;99.90;;;;;;5053488;28;20539;-72
2021/07/18 00:05:18;;;;;;;2.43;2.10;;;19.10;99.90;;;;;;5063526;28;20459;-70
2021/07/18 00:07:46;;;;;;;3.97;2.40;;;18.90;99.90;;;;;;5056782;28;20553;-70
2021/07/18 00:10:14;;;;;;;3.90;2.60;;;19.00;99.90;;;;;;5062737;28;20520;-70
2021/07/18 00:12:42;;;;;;;3.93;2.27;;;19.10;99.90;;;;;;5058176;28;20543;-72
2021/07/18 00:15:11;;;;;;;3.30;2.10;;;19.20;99.90;;;;;;5062643;28;20618;-70
2021/07/18 00:17:38;;;;;;;4.03;3.00;;;19.30;99.90;;;;;;5058207;28;20536;-70
2021/07/18 00:20:08;;;;;;;3.93;2.53;;;19.20;99.90;;;;;;5063769;28;20478;-70
2021/07/18 00:22:35;;;;;;;3.33;2.17;;;19.20;99.90;;;;;;5060353;28;20666;-70
2021/07/18 00:25:06;;;;;;;3.77;2.23;;;19.20;99.90;;;;;;5062585;28;20873;-72
2021/07/18 00:27:33;;;;;;;2.27;1.63;;;19.30;99.90;;;;;;5062236;28;20559;-70
2021/07/18 00:30:00;;;;;;;3.50;2.20;;;19.30;99.90;;;;;;5060143;28;20459;-71
2021/07/18 00:32:27;;;;;;;5.20;2.63;;;19.20;99.90;;;;;;5061641;28;20541;-69
2021/07/18 00:34:54;;;;;;;2.63;2.27;;;19.20;99.90;;;;;;5060316;28;20475;-72
2021/07/18 00:37:21;;;;;;;3.40;3.10;;;19.10;99.90;;;;;;5059581;28;20502;-72
2021/07/18 00:39:48;;;;;;;4.53;2.30;;;19.00;99.90;;;;;;5062750;28;20649;-73
2021/07/18 00:42:19;;;;;;;2.47;1.77;;;19.00;99.90;;;;;;5059941;28;20589;-69
2021/07/18 00:44:46;;;;;;;2.67;2.30;;;19.10;99.90;;;;;;5056144;28;20454;-69
2021/07/18 00:47:14;;;;;;;2.33;2.10;;;19.00;99.90;;;;;;5063779;28;20550;-71
2021/07/18 00:49:41;;;;;;;4.67;3.20;;;19.00;99.90;;;;;;5061153;28;20477;-68
2021/07/18 00:52:08;;;;;;;3.50;2.37;;;18.90;99.90;;;;;;5057897;28;20730;-69
2021/07/18 00:54:36;;;;;;;2.70;2.00;;;18.90;99.90;;;;;;5057871;28;20504;-69
2021/07/18 00:57:05;;;;;;;3.17;2.30;;;18.90;99.90;;;;;;5058389;28;20569;-73
2021/07/18 00:59:34;;;;;;;3.67;2.00;;;18.80;99.90;;;;;;5056783;28;20986;-69
2021/07/18 01:02:01;;;;;;;3.27;2.37;;;18.80;99.90;;;;;;5059006;28;20543;-73
2021/07/18 01:04:28;;;;;;;4.43;2.10;;;18.60;99.90;;;;;;5054924;28;20904;-70
2021/07/18 01:06:56;;;;;;;2.13;1.83;;;18.70;99.90;;;;;;5054738;28;21053;-70
2021/07/18 01:09:24;;;;;;;22.17;2.37;;;18.60;99.90;;;;;;5058021;28;20486;-72
2021/07/18 01:11:50;;;;;;;3.73;2.30;;;18.50;99.90;;;;;;5062514;28;20698;-69
2021/07/18 01:14:18;;;;;;;3.30;2.90;;;18.50;99.90;;;;;;5062220;28;20590;-71
2021/07/18 01:16:46;;;;;;;4.03;3.30;;;18.40;99.90;;;;;;5068291;28;20474;-71
2021/07/18 01:19:19;;;;;;;5.97;2.40;;;18.20;99.90;;;;;;5061580;28;20596;-72
2021/07/18 01:21:53;;;;;;;2.50;2.00;;;18.10;99.90;;;;;;5062023;28;20526;-70
2021/07/18 01:24:20;;;;;;;2.60;1.90;;;18.00;99.90;;;;;;5059942;28;20556;-72
2021/07/18 01:26:48;;;;;;;5.20;2.07;;;18.10;99.90;;;;;;5065622;28;20498;-69
2021/07/18 01:29:15;;;;;;;5.27;3.10;;;18.20;99.90;;;;;;5066291;28;20894;-71
2021/07/18 01:31:42;;;;;;;3.80;2.30;;;18.20;99.90;;;;;;5056660;28;20459;-72
2021/07/18 01:34:09;;;;;;;2.73;2.20;;;18.30;99.90;;;;;;5056124;28;20466;-71
2021/07/18 01:36:36;;;;;;;3.90;2.10;;;18.20;99.90;;;;;;5061824;28;20574;-70
2021/07/18 01:39:06;;;;;;;7.57;2.40;;;18.30;99.90;;;;;;5057580;28;20460;-70
2021/07/18 01:41:34;;;;;;;4.57;2.40;;;18.30;99.90;;;;;;5062227;28;20537;-73
2021/07/18 01:44:02;;;;;;;2.77;1.77;;;18.10;99.90;;;;;;5057490;28;20454;-70
2021/07/18 01:46:30;;;;;;;2.10;1.77;;;18.20;99.90;;;;;;5060691;28;20555;-70
2021/07/18 01:48:58;;;;;;;3.50;2.17;;;18.10;99.90;;;;;;5060485;28;21026;-70
2021/07/18 01:51:26;;;;;;;6.60;2.20;;;18.00;99.90;;;;;;5058348;28;20486;-71
2021/07/18 01:53:54;;;;;;;3.63;2.60;;;18.00;99.90;;;;;;5059145;28;20489;-69
2021/07/18 01:56:23;;;;;;;4.60;2.10;;;18.00;99.90;;;;;;5058879;28;20573;-71
2021/07/18 01:58:51;;;;;;;2.57;2.20;;;17.90;99.90;;;;;;5062579;28;20463;-71
2021/07/18 02:01:19;;;;;;;4.03;2.90;;;17.90;99.90;;;;;;5060950;28;20549;-71
2021/07/18 02:03:47;;;;;;;2.63;2.10;;;17.80;99.90;;;;;;5054473;28;20463;-69
2021/07/18 02:06:14;;;;;;;8.40;2.20;;;17.80;99.90;;;;;;5060107;28;20495;-69
2021/07/18 02:08:41;;;;;;;4.03;2.30;;;17.80;99.90;;;;;;5059282;28;20454;-71
2021/07/18 02:11:08;;;;;;;2.30;2.10;;;18.00;99.90;;;;;;5056373;28;20541;-71
2021/07/18 02:13:38;;;;;;;4.40;2.50;;;18.00;99.90;;;;;;5060938;28;20461;-71
2021/07/18 02:16:06;;;;;;;4.87;3.13;;;18.00;99.90;;;;;;5056798;28;20483;-71
2021/07/18 02:18:32;;;;;;;2.93;2.47;;;17.80;99.90;;;;;;5060967;28;20535;-73
2021/07/18 02:21:00;;;;;;;5.17;3.33;;;17.80;99.90;;;;;;5059870;28;20530;-75
2021/07/18 02:23:27;;;;;;;2.47;2.27;;;17.80;99.90;;;;;;5055127;28;20461;-72
2021/07/18 02:25:53;;;;;;;2.57;2.37;;;17.60;99.90;;;;;;5063034;28;20526;-72
2021/07/18 02:28:20;;;;;;;3.60;2.10;;;17.60;99.90;;;;;;5058241;28;21048;-71
2021/07/18 02:30:49;;;;;;;3.70;2.70;;;17.60;99.90;;;;;;5060540;28;20520;-70
2021/07/18 02:33:16;;;;;;;5.20;2.90;;;17.60;99.90;;;;;;5058622;28;20549;-72
2021/07/18 02:35:43;;;;;;;17.33;10.30;;;17.60;99.90;;;;;;5059578;28;20510;-71
2021/07/18 02:38:10;;;;;;;3.17;2.87;;;17.60;99.90;;;;;;5056118;28;20513;-69
2021/07/18 02:40:37;;;;;;;3.40;2.60;;;17.60;99.90;;;;;;5060612;28;20537;-69
2021/07/18 02:43:04;;;;;;;6.57;3.13;;;17.60;99.90;;;;;;5055455;28;20494;-68
2021/07/18 02:45:32;;;;;;;5.30;2.60;;;17.30;99.90;;;;;;5060148;28;20490;-69
2021/07/18 02:48:00;;;;;;;6.90;3.10;;;17.30;99.90;;;;;;5060871;28;20998;-70
2021/07/18 02:50:30;;;;;;;3.97;2.70;;;17.30;99.90;;;;;;5057940;28;20581;-71
2021/07/18 02:52:57;;;;;;;4.37;3.97;;;17.40;99.90;;;;;;5058043;28;20839;-69
2021/07/18 02:55:24;;;;;;;3.37;2.53;;;17.30;99.90;;;;;;5062224;28;20497;-70
2021/07/18 02:57:51;;;;;;;2.60;2.10;;;17.20;99.90;;;;;;5063395;28;20899;-69
2021/07/18 03:00:20;;;;;;;3.37;2.70;;;17.20;99.90;;;;;;5063345;28;20455;-69
2021/07/18 03:02:47;;;;;;;5.23;2.20;;;17.10;99.90;;;;;;5063802;28;20547;-72
2021/07/18 03:05:16;;;;;;;2.80;2.33;;;17.20;99.90;;;;;;5062095;28;20501;-70
2021/07/18 03:07:49;;;;;;;2.67;2.23;;;17.20;99.90;;;;;;5062707;28;20500;-69
2021/07/18 03:10:18;;;;;;;2.97;2.67;;;17.10;99.90;;;;;;5062221;28;20882;-74
2021/07/18 03:12:46;;;;;;;9.53;3.00;;;17.20;99.90;;;;;;5059084;28;20512;-72
2021/07/18 03:15:14;;;;;;;3.70;3.00;;;17.30;99.90;;;;;;5059039;28;20663;-70
2021/07/18 03:17:41;;;;;;;2.97;2.27;;;17.20;99.90;;;;;;5062620;28;20531;-69
2021/07/18 03:20:11;;;;;;;5.40;2.50;;;17.10;99.90;;;;;;5064610;28;20538;-70
2021/07/18 03:22:40;;;;;;;8.30;2.30;;;17.10;99.90;;;;;;5058483;28;20455;-73
2021/07/18 03:25:09;;;;;;;3.03;2.10;;;17.10;99.90;;;;;;5057171;28;20463;-70
2021/07/18 03:27:36;;;;;;;6.23;3.50;;;17.10;99.90;;;;;;5065223;28;20649;-70
2021/07/18 03:30:05;;;;;;;3.20;2.10;;;17.00;99.90;;;;;;5065678;28;20482;-72
2021/07/18 03:32:33;;;;;;;2.53;1.97;;;17.00;99.90;;;;;;5063812;28;20486;-75
2021/07/18 03:35:01;;;;;;;8.63;2.50;;;17.00;99.90;;;;;;5071259;28;20510;-70
2021/07/18 03:37:29;;;;;;;3.77;3.03;;;16.90;99.90;;;;;;5075161;28;20477;-71
2021/07/18 03:39:57;;;;;;;3.90;2.50;;;16.80;99.90;;;;;;5069983;28;20534;-70
2021/07/18 03:42:24;;;;;;;2.50;1.93;;;16.80;99.90;;;;;;5058354;28;20467;-72
2021/07/18 03:44:51;;;;;;;3.73;2.30;;;16.80;99.90;;;;;;5061859;28;20955;-73
2021/07/18 03:47:18;;;;;;;3.40;2.37;;;16.80;99.90;;;;;;5071813;28;20520;-72
2021/07/18 03:49:45;;;;;;;4.17;2.60;;;16.70;99.90;;;;;;5077178;28;20477;-72
2021/07/18 03:52:13;;;;;;;3.30;2.30;;;16.80;99.90;;;;;;5073472;28;20497;-71
2021/07/18 03:54:40;;;;;;;6.57;3.00;;;16.90;99.90;;;;;;5076945;28;20527;-70
2021/07/18 03:57:08;;;;;;;5.10;2.90;;;16.90;99.90;;;;;;5065940;28;20509;-70
2021/07/18 03:59:35;;;;;;;2.73;2.07;;;16.90;99.90;;;;;;5063262;28;20546;-72
2021/07/18 04:02:02;;;;;;;3.60;3.10;;;16.90;99.90;;;;;;5058371;28;20647;-71
2021/07/18 04:04:29;;;;;;;3.83;2.80;;;16.90;99.90;;;;;;5059207;28;20900;-69
2021/07/18 04:06:56;;;;;;;4.17;3.77;;;17.00;99.90;;;;;;5062394;28;20964;-71
2021/07/18 04:09:23;;;;;;;2.90;1.90;;;16.90;99.90;;;;;;5064449;28;20948;-72
2021/07/18 04:11:50;;;;;;;3.03;2.40;;;16.90;99.90;;;;;;5065396;28;20479;-71
2021/07/18 04:14:18;;;;;;;3.10;2.60;;;17.00;99.90;;;;;;5061210;28;20515;-71
2021/07/18 04:16:45;;;;;;;4.50;2.53;;;17.10;99.90;;;;;;5066709;28;20577;-71
2021/07/18 04:19:12;;;;;;;4.23;2.20;;;17.10;99.90;;;;;;5061289;28;20470;-70
2021/07/18 04:21:39;;;;;;;4.53;3.10;;;17.20;99.90;;;;;;5060747;28;20534;-72
2021/07/18 04:24:06;;;;;;;6.43;3.33;;;17.10;99.90;;;;;;5065637;28;20458;-72
2021/07/18 04:26:33;;;;;;;6.13;4.23;;;17.00;99.90;;;;;;5066364;28;20491;-70
2021/07/18 04:29:00;;;;;;;6.47;4.60;;;16.90;99.90;;;;;;5063801;28;21024;-71
2021/07/18 04:31:29;;;;;;;7.13;4.13;;;17.00;99.90;;;;;;5058464;28;20494;-70
2021/07/18 04:33:56;;;;;;;5.13;4.00;;;17.00;99.90;;;;;;5056743;28;20542;-72
2021/07/18 04:36:22;;;;;;;5.60;4.00;;;17.10;99.90;;;;;;5062572;28;20592;-70
2021/07/18 04:38:50;;;;;;;4.70;4.13;;;17.20;99.90;;;;;;5060301;28;20488;-70
2021/07/18 04:41:17;;;;;;;5.53;3.93;;;17.20;99.90;;;;;;5060496;28;25573;-72
2021/07/18 04:43:46;;;;;;;5.10;4.57;;;17.30;99.90;;;;;;5058459;28;20947;-71
2021/07/18 04:46:13;;;;;;;5.20;4.33;;;17.40;99.90;;;;;;5059523;28;20565;-71
2021/07/18 04:48:42;;;;;;;4.70;4.20;;;17.50;99.90;;;;;;5055931;28;20447;-72
2021/07/18 04:51:09;;;;;;;8.10;4.83;;;17.60;99.90;;;;;;5052429;28;20463;-71
2021/07/18 04:53:36;;;;;;;4.87;3.57;;;17.70;99.90;;;;;;5050724;28;20463;-69
2021/07/18 04:56:03;;;;;;;11.03;5.10;;;17.80;99.90;;;;;;5058575;28;20517;-71
2021/07/18 04:58:30;;;;;;;8.03;5.70;;;17.80;99.90;;;;;;5061426;28;20617;-71
2021/07/18 05:00:57;;;;;;;6.40;4.07;;;17.80;99.90;;;;;;5059999;28;20952;-73
2021/07/18 05:03:24;;;;;;;7.27;4.80;;;17.90;99.90;;;;;;5057175;28;20522;-72
2021/07/18 05:05:52;;;;;;;8.03;4.97;;;18.00;99.90;;;;;;5063348;28;20875;-70
2021/07/18 05:08:19;;;;;;;6.27;5.67;;;18.30;99.90;;;;;;5059215;28;20538;-74
2021/07/18 05:10:46;;;;;;;8.30;6.30;;;18.40;99.90;;;;;;5055339;28;20890;-69
2021/07/18 05:13:13;;;;;;;6.00;4.20;;;18.60;99.90;;;;;;5053574;28;20526;-71
2021/07/18 05:15:40;;;;;;;5.07;3.77;;;18.80;99.90;;;;;;5057408;28;20483;-72
2021/07/18 05:18:11;;;;;;;7.27;4.07;;;19.30;99.90;;;;;;5053813;28;20560;-74
2021/07/18 05:20:39;;;;;;;6.17;3.40;;;19.60;99.90;;;;;;5061294;28;20939;-73
2021/07/18 05:23:07;;;;;;;5.00;3.60;;;20.00;99.90;;;;;;5051356;28;20460;-72
2021/07/18 05:25:34;;;;;;;4.10;3.10;;;20.30;99.90;;;;;;5055660;28;20575;-70
2021/07/18 05:28:01;;;;;;;8.10;3.27;;;20.50;99.90;;;;;;5061372;28;20962;-70
2021/07/18 05:30:28;;;;;;;4.13;3.43;;;20.40;99.90;;;;;;5061460;28;20527;-71
2021/07/18 05:32:55;;;;;;;3.83;3.03;;;20.60;99.90;;;;;;5058693;28;20546;-70
2021/07/18 05:35:22;;;;;;;5.50;3.27;;;20.70;99.90;;;;;;5061282;28;20500;-71
2021/07/18 05:37:50;;;;;;;4.83;3.00;;;21.10;99.90;;;;;;5057489;28;20491;-70
2021/07/18 05:40:19;;;;;;;8.03;3.80;;;21.10;99.90;;;;;;5054604;28;20455;-70
2021/07/18 05:42:46;;;;;;;4.03;2.90;;;21.10;99.90;;;;;;5058186;28;20482;-70
2021/07/18 05:45:14;;;;;;;3.90;3.13;;;21.40;99.90;;;;;;5061704;28;20950;-70
2021/07/18 05:47:42;;;;;;;5.90;3.30;;;21.70;99.90;;;;;;5062427;28;20881;-71
2021/07/18 05:50:10;;;;;;;5.07;3.13;;;21.80;99.90;;;;;;5056687;28;20894;-70
2021/07/18 05:52:37;;;;;;;3.03;2.70;;;21.80;99.90;;;;;;5061903;28;20533;-70
2021/07/18 05:55:05;;;;;;;4.10;3.20;;;22.10;99.90;;;;;;5064759;28;20529;-70
2021/07/18 05:57:33;;;;;;;7.77;3.10;;;22.30;99.90;;;;;;5062933;28;20510;-70
2021/07/18 06:00:00;;;;;;;9.77;3.73;;;22.30;99.90;;;;;;5061096;28;20913;-69
2021/07/18 06:02:28;;;;;;;3.53;2.80;;;22.20;99.90;;;;;;5060490;28;20450;-71
2021/07/18 06:04:55;;;;;;;3.80;3.00;;;22.40;99.90;;;;;;5061578;28;20533;-72
2021/07/18 06:07:22;;;;;;;4.87;3.40;;;22.90;99.90;;;;;;5062784;28;20467;-71
2021/07/18 06:09:49;;;;;;;5.50;3.53;;;23.10;99.90;;;;;;5063070;28;20926;-72
2021/07/18 06:12:16;;;;;;;3.70;2.83;;;23.60;99.90;;;;;;5058732;28;20468;-73
2021/07/18 06:14:44;;;;;;;3.37;2.67;;;23.10;99.90;;;;;;5059784;28;20549;-70
2021/07/18 06:17:12;;;;;;;5.43;3.40;;;23.20;99.90;;;;;;5058597;28;20490;-71
2021/07/18 06:19:39;;;;;;;5.50;2.80;;;23.10;99.90;;;;;;5060424;28;20478;-69
2021/07/18 06:22:07;;;;;;;3.77;2.73;;;22.50;99.90;;;;;;5061468;28;20462;-72
2021/07/18 06:24:34;;;;;;;4.40;3.60;;;23.10;99.90;;;;;;5063001;28;20455;-74
2021/07/18 06:27:01;;;;;;;4.63;2.93;;;23.50;99.90;;;;;;5059707;28;20561;-70
2021/07/18 06:29:28;;;;;;;3.83;3.40;;;24.10;99.90;;;;;;5063518;28;20462;-70
2021/07/18 06:34:59;;;;;;;3.13;2.50;;;24.60;99.90;;;;;;5050081;28;20467;-72
2021/07/18 06:37:26;;;;;;;4.13;3.03;;;24.50;99.90;;;;;;5064689;28;20516;-72
2021/07/18 06:39:53;;;;;;;5.77;2.60;;;24.90;99.90;;;;;;5064401;28;20562;-73
2021/07/18 06:42:23;;;;;;;2.67;2.23;;;24.90;99.90;;;;;;5059504;28;20479;-71
2021/07/18 06:44:50;;;;;;;3.60;2.33;;;25.10;99.90;;;;;;5061827;28;20452;-73
2021/07/18 06:47:18;;;;;;;3.37;1.80;;;25.10;99.90;;;;;;5069938;28;21187;-72
2021/07/18 06:49:45;;;;;;;4.17;2.60;;;24.90;99.90;;;;;;5069003;28;20461;-72
2021/07/18 06:52:12;;;;;;;3.17;2.10;;;25.10;99.90;;;;;;5052923;28;20569;-71
2021/07/18 06:54:39;;;;;;;3.67;2.37;;;25.50;99.90;;;;;;5064322;28;20470;-69
2021/07/18 06:57:06;;;;;;;2.60;1.80;;;25.50;99.90;;;;;;5060677;28;20565;-69
2021/07/18 06:59:33;;;;;;;3.50;2.03;;;25.30;99.90;;;;;;5060216;28;20789;-71
2021/07/18 07:02:00;;;;;;;4.10;2.67;;;25.20;99.90;;;;;;5061793;28;20465;-71
2021/07/18 07:04:28;;;;;;;4.00;2.67;;;25.60;99.90;;;;;;5058993;28;20473;-72
2021/07/18 07:06:55;;;;;;;2.23;1.90;;;25.70;99.90;;;;;;5064862;28;20473;-72
2021/07/18 07:09:22;;;;;;;2.07;1.80;;;26.00;99.90;;;;;;5055156;28;20463;-70
2021/07/18 07:11:50;;;;;;;3.43;2.03;;;26.00;99.90;;;;;;5054777;28;20545;-70
2021/07/18 07:14:16;;;;;;;2.67;1.97;;;25.90;99.90;;;;;;5059060;28;20508;-75
2021/07/18 07:16:43;;;;;;;2.60;1.80;;;26.40;99.90;;;;;;5059510;28;20592;-71
2021/07/18 07:19:11;;;;;;;3.20;1.83;;;26.90;99.90;;;;;;5060143;28;20450;-72
2021/07/18 07:21:40;;;;;;;4.00;2.00;;;26.50;99.90;;;;;;5060850;28;20447;-70
2021/07/18 07:24:07;;;;;;;5.43;1.93;;;26.60;99.90;;;;;;5053175;28;20544;-72
2021/07/18 07:26:34;;;;;;;3.80;1.80;;;26.90;99.90;;;;;;5059010;28;20564;-69
2021/07/18 07:29:01;;;;;;;3.17;2.03;;;27.50;99.90;;;;;;5054631;28;20458;-71
2021/07/18 07:31:28;;;;;;;2.93;1.60;;;27.50;99.90;;;;;;5059838;28;20582;-69
2021/07/18 07:33:55;;;;;;;4.60;2.20;;;27.20;99.90;;;;;;5058068;28;20510;-72
2021/07/18 07:36:22;;;;;;;3.30;1.97;;;27.10;99.90;;;;;;5062314;28;20577;-70
2021/07/18 07:38:51;;;;;;;2.47;2.00;;;27.40;99.90;;;;;;5061742;28;20996;-70
2021/07/18 07:41:18;;;;;;;2.50;1.90;;;27.50;99.90;;;;;;5062143;28;20486;-72
2021/07/18 07:43:45;;;;;;;3.30;1.67;;;27.70;99.90;;;;;;5060918;28;20581;-71
2021/07/18 07:46:12;;;;;;;4.40;1.77;;;28.10;99.90;;;;;;5060102;28;20455;-71
2021/07/18 07:48:39;;;;;;;4.03;2.00;;;27.70;99.90;;;;;;5059311;28;20876;-73
2021/07/18 07:51:06;;;;;;;2.33;1.37;;;27.70;99.90;;;;;;5061436;28;20544;-69
2021/07/18 07:53:34;;;;;;;1.97;1.63;;;27.80;99.90;;;;;;5061850;28;20511;-73
2021/07/18 07:56:02;;;;;;;3.17;1.87;;;28.40;99.90;;;;;;5064172;28;20970;-70
2021/07/18 07:58:29;;;;;;;3.27;2.27;;;28.60;99.90;;;;;;5057684;28;20750;-70
2021/07/18 08:00:56;;;;;;;1.60;1.30;;;29.00;99.90;;;;;;5055134;28;20470;-71
2021/07/18 08:03:23;;;;;;;1.80;1.50;;;28.90;99.90;;;;;;5060248;28;20465;-70
2021/07/18 08:05:51;;;;;;;5.00;2.10;;;29.00;99.90;;;;;;5060669;28;20591;-71
2021/07/18 08:08:18;;;;;;;3.27;2.10;;;29.60;99.90;;;;;;5059454;28;20456;-70
2021/07/18 08:10:46;;;;;;;2.00;1.43;;;30.10;99.90;;;;;;5062324;28;20495;-71
2021/07/18 08:13:14;;;;;;;2.70;1.87;;;30.00;99.90;;;;;;5058167;28;20558;-70
2021/07/18 08:15:41;;;;;;;3.20;1.80;;;29.90;99.90;;;;;;5060077;28;20536;-69
2021/07/18 08:18:08;;;;;;;4.03;1.97;;;29.80;99.90;;;;;;5060091;28;20514;-70
2021/07/18 08:20:36;;;;;;;2.30;1.57;;;30.50;99.90;;;;;;5059166;28;20941;-71
2021/07/18 08:23:03;;;;;;;2.23;1.73;;;30.60;99.90;;;;;;5060396;28;20486;-71
2021/07/18 08:25:30;;;;;;;1.50;1.40;;;30.90;99.90;;;;;;5060938;28;20447;-71
2021/07/18 08:27:57;;;;;;;2.00;1.40;;;29.80;99.90;;;;;;5057161;28;20537;-72
2021/07/18 08:30:26;;;;;;;2.53;2.10;;;30.30;99.90;;;;;;5060275;28;20483;-69
2021/07/18 08:32:53;;;;;;;3.30;2.37;;;30.30;99.90;;;;;;5060949;28;20962;-72
2021/07/18 08:35:21;;;;;;;2.00;1.70;;;30.30;99.90;;;;;;5060985;28;20529;-71
2021/07/18 08:37:48;;;;;;;3.87;1.63;;;30.70;99.90;;;;;;5056120;28;20870;-71
2021/07/18 08:40:16;;;;;;;1.77;1.60;;;31.10;99.90;;;;;;5052881;28;20544;-73
2021/07/18 08:42:43;;;;;;;2.50;2.10;;;31.70;99.90;;;;;;5050191;28;20473;-73
2021/07/18 08:45:12;;;;;;;3.27;1.50;;;31.90;99.90;;;;;;5044560;28;20462;-72
2021/07/18 08:47:41;;;;;;;3.37;2.00;;;32.30;99.90;;;;;;5048363;28;21059;-70
2021/07/18 08:50:09;;;;;;;2.33;2.10;;;32.50;99.90;;;;;;5051378;28;20455;-73
2021/07/18 08:52:37;;;;;;;2.20;1.80;;;32.40;99.90;;;;;;5048979;28;20550;-73
2021/07/18 08:55:08;;;;;;;3.30;1.73;;;32.00;99.90;;;;;;5055386;28;21014;-71
2021/07/18 08:57:35;;;;;;;3.53;1.80;;;31.80;99.90;;;;;;5055209;28;20475;-71
2021/07/18 09:00:04;;;;;;;2.47;2.00;;;31.80;99.90;;;;;;5055030;28;20878;-73
2021/07/18 09:02:31;;;;;;;3.20;1.60;;;32.40;99.90;;;;;;5051761;28;20467;-71
2021/07/18 09:04:59;;;;;;;2.57;1.70;;;33.10;99.90;;;;;;5052787;28;20446;-71
2021/07/18 09:07:26;;;;;;;4.80;1.60;;;33.30;98.20;;;;;;5057467;28;20478;-72
2021/07/18 09:10:03;;;;;;;1.40;1.30;;;33.40;98.70;;;;;;5054632;28;20462;-71
2021/07/18 09:12:30;;;;;;;1.70;1.33;;;33.70;97.50;;;;;;5055248;28;20578;-73
2021/07/18 09:15:00;;;;;;;1.50;1.37;;;33.20;97.80;;;;;;5057160;28;20556;-71
2021/07/18 09:17:33;;;;;;;2.33;1.67;;;32.60;97.70;;;;;;5058100;28;20490;-73
2021/07/18 09:20:13;;;;;;;2.10;1.50;;;33.00;98.40;;;;;;5061772;28;20435;-72
2021/07/18 09:22:40;;;;;;;2.30;1.40;;;34.00;96.80;;;;;;5059119;28;20461;-70
2021/07/18 09:25:07;;;;;;;3.03;1.50;;;34.90;96.50;;;;;;5054038;28;20531;-70
2021/07/18 09:27:35;;;;;;;3.70;1.80;;;35.30;93.90;;;;;;5051338;28;20561;-69
2021/07/18 09:30:07;;;;;;;1.83;1.63;;;33.90;95.40;;;;;;5056613;28;20474;-70
2021/07/18 09:32:42;;;;;;;5.53;1.90;;;33.50;93.80;;;;;;5054085;28;20534;-71
2021/07/18 09:35:12;;;;;;;1.60;1.33;;;33.30;95.10;;;;;;5056381;28;20501;-71
2021/07/18 09:37:44;;;;;;;2.10;1.90;;;33.50;93.40;;;;;;5059228;28;20523;-73
2021/07/18 09:40:13;;;;;;;2.17;1.53;;;32.90;94.10;;;;;;5061180;28;20438;-73
2021/07/18 09:42:50;;;;;;;3.03;1.50;;;32.80;94.50;;;;;;5058011;28;20892;-71
2021/07/18 09:45:19;;;;;;;4.47;1.70;;;32.80;93.10;;;;;;5061828;28;20537;-71
2021/07/18 09:47:59;;;;;;;4.77;1.70;;;32.90;94.80;;;;;;5058762;28;20908;-71
2021/07/18 09:50:31;;;;;;;3.23;2.93;;;31.70;95.00;;;;;;5056058;28;20815;-71
2021/07/18 09:53:12;;;;;;;2.83;1.70;;;32.20;95.40;;;;;;5059210;28;20590;-71
2021/07/18 09:55:40;;;;;;;2.53;2.23;;;32.50;94.80;;;;;;5052696;28;20463;-73
2021/07/18 09:58:07;;;;;;;3.13;1.57;;;32.80;96.00;;;;;;5063388;28;20574;-73
2021/07/18 10:00:41;;;;;;;1.90;1.70;;;33.80;94.70;;;;;;5060348;28;20546;-71
2021/07/18 10:03:12;;;;;;;3.23;1.80;;;34.30;93.10;;;;;;5052547;28;20459;-72
2021/07/18 10:05:41;;;;;;;2.20;1.80;;;34.30;92.20;;;;;;5061519;28;20467;-72
2021/07/18 10:08:10;;;;;;;2.17;1.50;;;33.40;93.10;;;;;;5057517;28;20560;-71
2021/07/18 10:10:38;;;;;;;2.53;2.33;;;33.70;95.50;;;;;;5065101;28;20466;-73
2021/07/18 10:13:06;;;;;;;1.97;1.73;;;34.60;91.20;;;;;;5064623;28;20522;-72
2021/07/18 10:15:34;;;;;;;3.73;2.43;;;34.20;93.00;;;;;;5038375;28;1111951;-72
2021/07/18 10:18:01;;;;;;;2.00;1.67;;;33.70;91.60;;;;;;5077173;28;20521;-73
2021/07/18 10:20:29;;;;;;;2.20;1.70;;;33.40;93.50;;;;;;5083699;28;20531;-71
2021/07/18 10:22:58;;;;;;;2.10;1.50;;;33.40;93.40;;;;;;5062245;28;20468;-69
2021/07/18 10:25:26;;;;;;;1.90;1.80;;;33.80;93.10;;;;;;5068687;28;20924;-70
2021/07/18 10:27:53;;;;;;;1.80;1.57;;;34.70;92.30;;;;;;5069999;28;20467;-73
2021/07/18 10:30:22;;;;;;;2.47;1.80;;;35.00;91.10;;;;;;5087149;28;20501;-73
2021/07/18 10:32:51;;;;;;;2.23;1.80;;;35.30;92.20;;;;;;5087207;28;20463;-73
2021/07/18 10:35:22;;;;;;;2.13;1.83;;;35.50;88.30;;;;;;5081026;28;20454;-74
2021/07/18 10:37:49;;;;;;;2.70;2.50;;;34.20;91.10;;;;;;5071303;28;20497;-70
2021/07/18 10:40:21;;;;;;;1.90;1.70;;;33.70;90.90;;;;;;5067100;28;20447;-71
2021/07/18 10:43:02;;;;;;;2.37;1.43;;;34.50;92.10;;;;;;5066004;28;20493;-76
2021/07/18 10:45:29;;;;;;;3.20;2.37;;;34.40;92.40;;;;;;5065809;28;20455;-69
2021/07/18 10:47:59;;;;;;;3.20;1.73;;;34.30;91.10;;;;;;5063338;28;20478;-70
2021/07/18 10:50:51;;;;;;;2.10;1.70;;;33.40;91.50;;;;;;5060519;28;20490;-72
2021/07/18 10:53:23;;;;;;;6.60;2.10;;;34.20;91.50;;;;;;5062663;28;20454;-70
2021/07/18 10:55:53;;;;;;;4.20;3.50;;;34.90;89.70;;;;;;5069487;28;20454;-74
2021/07/18 10:58:51;;;;;;;3.53;2.10;;;34.10;90.40;;;;;;5061376;28;20482;-70
2021/07/18 11:01:38;;;;;;;3.03;1.83;;;33.70;92.20;;;;;;5058742;28;20473;-70
2021/07/18 11:04:07;;;;;;;4.37;2.10;;;33.20;91.90;;;;;;5060135;28;20486;-71
2021/07/18 11:06:37;;;;;;;2.83;2.00;;;33.70;91.50;;;;;;5057490;28;20475;-71
2021/07/18 11:09:18;;;;;;;5.27;2.27;;;34.50;91.40;;;;;;5041023;28;20441;-71
2021/07/18 11:11:48;;;;;;;3.73;2.23;;;34.30;90.70;;;;;;5061880;28;20541;-72
2021/07/18 11:14:27;;;;;;;2.33;2.13;;;34.20;91.50;;;;;;5052755;28;20590;-71
2021/07/18 11:16:56;;;;;;;2.80;2.50;;;34.60;91.10;;;;;;5057907;28;20494;-72
2021/07/18 11:20:00;;;;;;;7.07;2.30;;;34.70;90.30;;;;;;5057984;28;20575;-73
2021/07/18 11:23:01;;;;;;;1.90;1.80;;;35.20;89.60;;;;;;5048820;28;20513;-72
2021/07/18 11:25:47;;;;;;;4.50;2.00;;;34.80;91.20;;;;;;5064957;28;20465;-72
2021/07/18 11:28:52;;;;;;;2.00;1.70;;;34.90;88.70;;;;;;5062129;28;20511;-70
2021/07/18 11:31:40;;;;;;;2.40;1.80;;;35.00;91.30;;;;;;5063531;28;20873;-71
2021/07/18 11:34:16;;;;;;;3.50;2.00;;;35.40;90.20;;;;;;5055489;28;20532;-68
2021/07/18 11:36:55;;;;;;;1.70;1.53;;;35.20;88.10;;;;;;5063674;28;20565;-72
2021/07/18 11:39:25;;;;;;;2.53;2.00;;;35.00;89.70;;;;;;5062630;28;20557;-72
2021/07/18 11:42:16;;;;;;;3.10;1.93;;;35.40;89.70;;;;;;5056741;28;20470;-71
2021/07/18 11:44:48;;;;;;;2.23;2.00;;;36.50;86.20;;;;;;5053965;28;20529;-71
2021/07/18 11:47:18;;;;;;;2.97;1.87;;;36.00;86.80;;;;;;5054017;28;20982;-71
2021/07/18 11:49:48;;;;;;;2.67;1.83;;;36.10;89.40;;;;;;5054119;28;20520;-70
2021/07/18 11:52:16;;;;;;;3.00;1.87;;;35.90;89.40;;;;;;5056839;28;20475;-72
2021/07/18 11:54:44;;;;;;;2.20;1.97;;;36.70;86.20;;;;;;5053175;28;20498;-72
2021/07/18 11:57:14;;;;;;;2.90;1.97;;;37.00;84.20;;;;;;5057197;28;21089;-71
2021/07/18 11:59:43;;;;;;;2.10;1.90;;;37.10;84.00;;;;;;5060939;28;20551;-71
2021/07/18 12:02:13;;;;;;;3.57;2.27;;;36.10;85.00;;;;;;5052241;28;20475;-70
2021/07/18 12:04:41;;;;;;;2.70;2.20;;;35.80;89.00;;;;;;5050144;28;20503;-71
2021/07/18 12:07:10;;;;;;;2.30;2.10;;;36.50;89.30;;;;;;5056162;28;20510;-72
2021/07/18 12:09:39;;;;;;;3.97;2.10;;;37.00;88.30;;;;;;5059853;28;20512;-72
2021/07/18 12:12:08;;;;;;;4.23;2.30;;;36.60;87.00;;;;;;5054551;28;20546;-73
2021/07/18 12:14:35;;;;;;;2.20;2.00;;;36.70;86.40;;;;;;5046112;28;20565;-72
2021/07/18 12:17:04;;;;;;;2.10;1.80;;;35.90;86.00;;;;;;5051644;28;20522;-72
2021/07/18 12:19:34;;;;;;;2.70;1.90;;;34.60;89.10;;;;;;5055628;28;20905;-71
2021/07/18 12:22:04;;;;;;;3.60;2.30;;;34.30;91.10;;;;;;5056269;28;20480;-70
2021/07/18 12:24:32;;;;;;;3.23;1.97;;;34.50;90.20;;;;;;5054641;28;20959;-70
2021/07/18 12:27:14;;;;;;;2.73;2.20;;;35.00;88.70;;;;;;5059811;28;20521;-71
2021/07/18 12:29:46;;;;;;;5.43;2.03;;;35.20;90.00;;;;;;5061841;28;20520;-71
2021/07/18 12:32:14;;;;;;;1.60;1.50;;;34.90;90.80;;;;;;5060116;28;20543;-71
2021/07/18 12:34:44;;;;;;;5.07;2.67;;;34.40;90.40;;;;;;5054500;28;20470;-71
2021/07/18 12:37:13;;;;;;;3.80;2.37;;;34.00;89.80;;;;;;5058762;28;20513;-71
2021/07/18 12:39:42;;;;;;;2.90;2.17;;;33.30;91.30;;;;;;5052116;28;20481;-71
2021/07/18 12:42:11;;;;;;;2.20;1.87;;;33.10;91.20;;;;;;5053964;28;20563;-72
2021/07/18 12:44:47;;;;;;;6.50;2.90;;;33.70;90.80;;;;;;5057332;28;20543;-72
2021/07/18 12:47:32;;;;;;;4.63;1.63;;;34.10;91.70;;;;;;5065507;28;20490;-72
2021/07/18 12:50:31;;;;;;;2.83;2.27;;;35.10;91.30;;;;;;5057246;28;20567;-71
2021/07/18 12:53:08;;;;;;;4.43;2.10;;;34.90;88.70;;;;;;5058061;28;20458;-72
2021/07/18 12:55:38;;;;;;;6.70;2.27;;;34.70;89.90;;;;;;5057329;28;20443;-73
2021/07/18 12:58:25;;;;;;;3.00;2.00;;;35.80;89.60;;;;;;5059035;28;20519;-72